Time;durP1;ratioP1;P1;durP2;ratioP2;P2;SDS_P1;SDS_P2;PMS_P1;PMS_P2;Temp;Humidity;BMP_temperature;BMP_pressure;BME280_temperature;BME280_humidity;BME280_pressure;Samples;Min_cycle;Max_cycle;Signal;HPM_P1;HPM_P2
2022/11/16 00:02:08;;;;;;;16.07;9.97;;;18.30;99.90;;;;;;4996126;28;25127;-76
2022/11/16 00:04:34;;;;;;;20.05;10.45;;;18.30;99.90;;;;;;4979125;28;25181;-75
2022/11/16 00:07:01;;;;;;;16.42;9.60;;;18.40;99.90;;;;;;4979205;28;25100;-78
2022/11/16 00:09:30;;;;;;;17.00;10.45;;;18.30;99.90;;;;;;4994205;28;25134;-76
2022/11/16 00:12:01;;;;;;;20.02;10.32;;;18.30;99.90;;;;;;4978257;28;25098;-76
2022/11/16 00:14:30;;;;;;;19.30;10.80;;;18.20;99.90;;;;;;4978623;28;25079;-77
2022/11/16 00:16:56;;;;;;;20.70;11.20;;;18.30;99.90;;;;;;4991167;28;25133;-77
2022/11/16 00:19:23;;;;;;;22.25;11.20;;;18.20;99.90;;;;;;4988240;28;25064;-76
2022/11/16 00:21:49;;;;;;;19.65;10.60;;;18.20;99.90;;;;;;4977226;28;25129;-76
2022/11/16 00:24:16;;;;;;;21.30;10.70;;;18.20;99.90;;;;;;4991787;28;25065;-76
2022/11/16 00:26:43;;;;;;;17.67;10.60;;;18.30;99.90;;;;;;4976866;28;25086;-76
2022/11/16 00:29:18;;;;;;;20.63;11.65;;;18.30;99.90;;;;;;4977475;28;25070;-76
2022/11/16 00:31:44;;;;;;;21.08;10.68;;;18.20;99.90;;;;;;4987958;28;25118;-76
2022/11/16 00:34:10;;;;;;;17.05;10.57;;;18.40;99.90;;;;;;4983498;28;25051;-76
2022/11/16 00:36:35;;;;;;;18.70;11.18;;;18.20;99.90;;;;;;4972438;28;25053;-77
2022/11/16 00:39:01;;;;;;;16.98;10.30;;;18.40;99.90;;;;;;4985534;28;25115;-77
2022/11/16 00:41:27;;;;;;;14.38;9.40;;;18.40;99.90;;;;;;4979766;28;25077;-76
2022/11/16 00:43:52;;;;;;;20.52;11.13;;;18.50;99.90;;;;;;4979038;28;25081;-77
2022/11/16 00:46:18;;;;;;;19.48;11.52;;;18.50;99.90;;;;;;4982673;28;25054;-77
2022/11/16 00:48:43;;;;;;;22.42;11.15;;;18.40;99.90;;;;;;4995743;28;25159;-77
2022/11/16 00:51:09;;;;;;;19.85;10.57;;;18.50;99.90;;;;;;4998992;28;25070;-77
2022/11/16 00:53:35;;;;;;;18.42;9.65;;;18.30;99.90;;;;;;4988702;28;25132;-77
2022/11/16 00:56:01;;;;;;;19.55;11.00;;;18.50;99.90;;;;;;4990212;28;25111;-76
2022/11/16 00:58:26;;;;;;;23.10;12.63;;;18.50;99.90;;;;;;4986478;28;25066;-76
2022/11/16 01:00:52;;;;;;;17.30;10.63;;;18.50;99.90;;;;;;4988136;28;25074;-76
2022/11/16 01:03:18;;;;;;;23.80;11.85;;;18.50;99.90;;;;;;4989710;28;25063;-78
2022/11/16 01:05:43;;;;;;;19.15;9.60;;;18.50;99.90;;;;;;5004485;28;25109;-77
2022/11/16 01:08:09;;;;;;;20.13;11.10;;;18.70;99.90;;;;;;5000938;28;25097;-76
2022/11/16 01:10:38;;;;;;;22.45;10.48;;;18.50;99.90;;;;;;4995632;28;25062;-76
2022/11/16 01:13:03;;;;;;;18.40;11.45;;;18.50;99.90;;;;;;5001250;28;25077;-77
2022/11/16 01:15:29;;;;;;;17.38;10.25;;;18.40;99.90;;;;;;4991626;28;25080;-77
2022/11/16 01:17:55;;;;;;;21.52;11.27;;;18.60;99.90;;;;;;4994023;28;25079;-77
2022/11/16 01:20:24;;;;;;;16.55;10.23;;;18.60;99.90;;;;;;4992555;28;25065;-76
2022/11/16 01:22:50;;;;;;;18.25;9.70;;;18.50;99.90;;;;;;4998405;28;25149;-76
2022/11/16 01:25:16;;;;;;;17.33;9.68;;;18.40;99.90;;;;;;4991229;28;25063;-75
2022/11/16 01:27:42;;;;;;;21.17;10.55;;;18.40;99.90;;;;;;4986547;28;25122;-76
2022/11/16 01:30:10;;;;;;;21.70;9.65;;;18.40;99.90;;;;;;4988832;28;25075;-77
2022/11/16 01:32:36;;;;;;;19.55;10.18;;;18.60;99.90;;;;;;4986162;28;25068;-77
2022/11/16 01:35:03;;;;;;;15.30;9.23;;;18.60;99.90;;;;;;4993225;28;25072;-76
2022/11/16 01:37:29;;;;;;;19.85;8.50;;;18.70;99.90;;;;;;5018028;28;25067;-77
2022/11/16 01:39:55;;;;;;;12.90;8.95;;;18.60;99.90;;;;;;5014938;28;25077;-77
2022/11/16 01:42:26;;;;;;;13.57;7.88;;;18.40;99.90;;;;;;5004475;28;25059;-77
2022/11/16 01:45:03;;;;;;;13.38;8.65;;;18.50;99.90;;;;;;4993110;28;25060;-76
2022/11/16 01:47:29;;;;;;;13.10;7.90;;;18.70;99.90;;;;;;4986673;28;25051;-78
2022/11/16 01:50:04;;;;;;;13.23;7.68;;;18.70;99.90;;;;;;4982744;28;25055;-77
2022/11/16 01:52:34;;;;;;;14.50;8.75;;;18.40;99.90;;;;;;4984506;28;25057;-78
2022/11/16 01:55:01;;;;;;;15.88;9.25;;;18.50;99.90;;;;;;4981084;28;25104;-78
2022/11/16 01:57:32;;;;;;;14.15;8.48;;;18.50;99.90;;;;;;5009109;28;25056;-77
2022/11/16 02:00:00;;;;;;;14.48;8.70;;;18.30;99.90;;;;;;4991549;28;25158;-77
2022/11/16 02:02:26;;;;;;;12.55;7.80;;;18.40;99.90;;;;;;4987818;28;25074;-77
2022/11/16 02:04:53;;;;;;;12.65;8.23;;;18.40;99.90;;;;;;4987916;28;25061;-77
2022/11/16 02:10:59;;;;;;;13.88;7.20;;;18.40;99.90;;;;;;4985523;28;25133;-77
2022/11/16 02:14:02;;;;;;;10.20;6.47;;;18.10;99.90;;;;;;4992952;28;25107;-77
2022/11/16 02:16:30;;;;;;;;;;;18.10;99.90;;;;;;4989090;28;25085;-77
2022/11/16 02:19:23;;;;;;;11.50;7.05;;;18.00;99.90;;;;;;4984013;28;24085;-76
2022/11/16 02:21:52;;;;;;;;;;;17.70;99.90;;;;;;4984155;28;25052;-76
2022/11/16 02:24:53;;;;;;;9.75;6.03;;;17.60;99.90;;;;;;4989312;28;25099;-77
2022/11/16 02:27:50;;;;;;;12.30;6.00;;;17.50;99.90;;;;;;4989340;28;25078;-77
2022/11/16 02:30:18;;;;;;;9.32;5.57;;;17.60;99.90;;;;;;4983817;28;25063;-76
2022/11/16 02:32:52;;;;;;;11.50;5.75;;;17.40;99.90;;;;;;4989129;28;25134;-77
2022/11/16 02:35:50;;;;;;;8.75;5.30;;;17.40;99.90;;;;;;4987455;28;25084;-77
2022/11/16 02:38:21;;;;;;;8.77;5.18;;;17.50;99.90;;;;;;4988888;28;25075;-76
2022/11/16 02:40:52;;;;;;;10.65;5.38;;;17.40;99.90;;;;;;4997612;28;25135;-77
2022/11/16 02:43:35;;;;;;;11.20;4.63;;;17.40;99.90;;;;;;4985157;28;25075;-76
2022/11/16 02:46:07;;;;;;;6.53;4.00;;;17.20;99.90;;;;;;4984033;28;25149;-77
2022/11/16 02:48:38;;;;;;;10.57;4.60;;;17.20;99.90;;;;;;4994625;28;25109;-77
2022/11/16 02:51:05;;;;;;;8.05;4.82;;;17.10;99.90;;;;;;5002586;28;25095;-76
2022/11/16 02:53:37;;;;;;;11.15;4.88;;;17.00;99.90;;;;;;4978357;28;25062;-77
2022/11/16 02:56:03;;;;;;;8.90;4.78;;;17.00;99.90;;;;;;5002649;28;25053;-76
2022/11/16 02:58:29;;;;;;;7.32;4.50;;;16.90;99.90;;;;;;4993318;28;25057;-76
2022/11/16 03:01:30;;;;;;;11.15;5.55;;;16.90;99.90;;;;;;4985331;28;25101;-76
2022/11/16 03:04:07;;;;;;;8.40;5.68;;;16.90;99.90;;;;;;4985089;28;25080;-76
2022/11/16 03:06:38;;;;;;;9.88;5.30;;;16.70;99.90;;;;;;5002956;28;25096;-77
2022/11/16 03:09:30;;;;;;;14.55;5.70;;;16.70;99.90;;;;;;5003371;28;25096;-76
2022/11/16 03:11:59;;;;;;;10.32;4.97;;;16.80;99.90;;;;;;5002968;28;25508;-76
2022/11/16 03:14:32;;;;;;;9.25;5.82;;;16.70;99.90;;;;;;4986793;28;25074;-76
2022/11/16 03:16:59;;;;;;;10.07;4.78;;;16.60;99.90;;;;;;4979714;28;25122;-77
2022/11/16 03:19:52;;;;;;;9.90;5.65;;;16.50;99.90;;;;;;4984835;28;25125;-76
2022/11/16 03:22:40;;;;;;;10.57;5.18;;;16.60;99.90;;;;;;4978385;28;25080;-76
2022/11/16 03:25:08;;;;;;;8.30;5.22;;;16.60;99.90;;;;;;5005285;28;25151;-77
2022/11/16 03:27:52;;;;;;;7.53;4.90;;;16.50;99.90;;;;;;4987278;28;25068;-76
2022/11/16 03:30:24;;;;;;;8.60;5.00;;;16.10;99.90;;;;;;4984878;28;25057;-76
2022/11/16 03:33:27;;;;;;;12.02;4.88;;;16.20;99.90;;;;;;4990305;28;25143;-76
2022/11/16 03:36:06;;;;;;;9.77;4.90;;;15.90;99.90;;;;;;4989293;28;25070;-77
2022/11/16 03:38:34;;;;;;;5.43;3.95;;;16.00;99.90;;;;;;5000295;28;25101;-77
2022/11/16 03:41:02;;;;;;;10.65;5.05;;;16.10;99.90;;;;;;5008150;28;25069;-77
2022/11/16 03:43:30;;;;;;;13.30;5.43;;;15.90;99.90;;;;;;4995313;28;25071;-78
2022/11/16 03:45:57;;;;;;;9.30;4.90;;;16.00;99.90;;;;;;4985891;28;25113;-75
2022/11/16 03:48:22;;;;;;;8.15;5.05;;;15.80;99.90;;;;;;4983006;28;25102;-76
2022/11/16 03:50:49;;;;;;;13.68;5.05;;;15.80;99.90;;;;;;4982309;28;25181;-76
2022/11/16 03:53:14;;;;;;;9.25;5.55;;;15.70;99.90;;;;;;4989971;28;25070;-76
2022/11/16 03:55:40;;;;;;;15.07;5.57;;;15.70;99.90;;;;;;4981982;28;25072;-76
2022/11/16 03:58:05;;;;;;;9.90;4.90;;;15.80;99.90;;;;;;4982486;28;25118;-75
2022/11/16 04:00:31;;;;;;;11.00;5.38;;;15.60;99.90;;;;;;4991057;28;25105;-77
2022/11/16 04:02:57;;;;;;;10.73;5.75;;;15.60;99.90;;;;;;4987975;28;25084;-76
2022/11/16 04:24:53;;;;;;;8.68;4.40;;;15.40;99.90;;;;;;4993069;28;25079;-76
2022/11/16 04:30:07;;;;;;;8.00;4.00;;;15.40;99.90;;;;;;4986197;28;25062;-76
2022/11/16 04:38:01;;;;;;;9.20;3.75;;;15.10;99.90;;;;;;4986381;28;25123;-76
2022/11/16 04:40:30;;;;;;;9.18;3.70;;;14.90;99.90;;;;;;4983494;28;25162;-75
2022/11/16 04:42:58;;;;;;;6.40;3.60;;;14.90;99.90;;;;;;4984866;28;25136;-75
2022/11/16 04:48:10;;;;;;;7.15;3.50;;;14.90;99.90;;;;;;4986160;28;25058;-75
2022/11/16 04:50:38;;;;;;;8.38;2.90;;;14.80;99.90;;;;;;4985981;28;25081;-75
2022/11/16 04:53:05;;;;;;;7.50;2.80;;;14.80;99.90;;;;;;4983314;28;25158;-75
2022/11/16 04:55:31;;;;;;;11.10;4.03;;;14.70;99.90;;;;;;5000943;28;25141;-76
2022/11/16 04:57:57;;;;;;;7.57;2.40;;;14.60;99.90;;;;;;5002334;28;25158;-75
2022/11/16 05:00:23;;;;;;;7.55;2.70;;;14.60;99.90;;;;;;4990053;28;25075;-76
2022/11/16 05:02:49;;;;;;;10.60;2.88;;;14.60;99.90;;;;;;4996274;28;25085;-75
2022/11/16 05:05:14;;;;;;;7.88;2.53;;;14.50;99.90;;;;;;5000917;28;25065;-76
2022/11/16 05:07:40;;;;;;;5.80;2.47;;;14.40;99.90;;;;;;4995339;28;25103;-76
2022/11/16 05:10:06;;;;;;;6.57;2.78;;;14.30;99.90;;;;;;4989971;28;25180;-76
2022/11/16 05:12:32;;;;;;;6.63;2.70;;;14.40;99.90;;;;;;4988620;28;25061;-75
2022/11/16 05:14:58;;;;;;;11.80;2.78;;;14.40;99.90;;;;;;4987450;28;25153;-75
2022/11/16 05:17:25;;;;;;;12.52;3.17;;;14.30;99.90;;;;;;4985989;28;25116;-75
2022/11/16 05:22:36;;;;;;;8.55;2.47;;;14.20;99.90;;;;;;4983715;28;25076;-76
2022/11/16 05:25:02;;;;;;;10.23;2.63;;;14.20;99.90;;;;;;4989534;28;25060;-75
2022/11/16 05:27:29;;;;;;;5.28;2.75;;;14.20;99.90;;;;;;4986766;28;25106;-74
2022/11/16 05:29:55;;;;;;;6.78;2.53;;;14.20;99.90;;;;;;4981450;28;25104;-75
2022/11/16 05:32:22;;;;;;;10.35;3.03;;;14.20;99.90;;;;;;4985730;28;25121;-74
2022/11/16 05:34:48;;;;;;;10.35;2.50;;;14.00;99.90;;;;;;4987923;28;25143;-75
2022/11/16 05:37:14;;;;;;;6.00;2.47;;;13.90;99.90;;;;;;4986023;28;25071;-74
2022/11/16 05:39:40;;;;;;;18.95;3.42;;;13.80;99.90;;;;;;4986703;28;25067;-76
2022/11/16 05:42:07;;;;;;;5.70;3.10;;;13.80;99.90;;;;;;4985270;28;25057;-75
2022/11/16 05:44:33;;;;;;;11.02;2.90;;;13.70;99.90;;;;;;4989425;28;25139;-76
2022/11/16 05:46:58;;;;;;;15.20;3.22;;;13.70;99.90;;;;;;4991842;28;25085;-75
2022/11/16 05:49:25;;;;;;;7.07;2.65;;;13.70;99.90;;;;;;4982361;28;25112;-76
2022/11/16 05:51:50;;;;;;;10.05;3.05;;;13.50;99.90;;;;;;4988073;28;25113;-76
2022/11/16 05:54:23;;;;;;;8.50;2.97;;;13.50;99.90;;;;;;4996544;28;25090;-76
2022/11/16 05:56:49;;;;;;;10.07;2.97;;;13.30;99.90;;;;;;4982952;28;25053;-76
2022/11/16 05:59:17;;;;;;;8.05;2.65;;;13.40;99.90;;;;;;4986220;28;25067;-75
2022/11/16 06:01:44;;;;;;;9.55;2.67;;;13.30;99.90;;;;;;4989145;28;25070;-75
2022/11/16 06:04:10;;;;;;;5.38;2.03;;;13.30;99.90;;;;;;4986186;28;25072;-79
2022/11/16 06:06:36;;;;;;;13.23;2.58;;;13.20;99.90;;;;;;4997354;28;25134;-75
2022/11/16 06:09:02;;;;;;;7.28;2.42;;;13.20;99.90;;;;;;4990764;28;25082;-77
2022/11/16 06:11:28;;;;;;;9.13;2.03;;;13.10;99.90;;;;;;4989181;28;25076;-76
2022/11/16 06:13:53;;;;;;;8.80;2.75;;;13.00;99.90;;;;;;4989968;28;25135;-75
2022/11/16 06:16:19;;;;;;;9.80;2.40;;;12.90;99.90;;;;;;4996590;28;25079;-75
2022/11/16 06:18:46;;;;;;;7.60;2.10;;;12.90;99.90;;;;;;4993053;28;25061;-76
2022/11/16 06:21:13;;;;;;;11.80;3.13;;;12.80;99.90;;;;;;4984499;28;25065;-75
2022/11/16 06:23:39;;;;;;;8.10;2.30;;;12.80;99.90;;;;;;4986528;28;25109;-76
2022/11/16 06:26:06;;;;;;;10.23;2.65;;;12.90;99.90;;;;;;4989596;28;25075;-77
2022/11/16 06:28:32;;;;;;;9.05;2.80;;;12.90;99.90;;;;;;4988593;28;25124;-76
2022/11/16 06:30:58;;;;;;;10.45;2.47;;;12.80;99.90;;;;;;4988416;28;25148;-76
2022/11/16 06:33:23;;;;;;;8.80;2.25;;;12.90;99.90;;;;;;4984933;28;25132;-77
2022/11/16 06:35:49;;;;;;;9.50;2.20;;;12.70;99.90;;;;;;4989213;28;25084;-76
2022/11/16 06:38:17;;;;;;;7.22;2.22;;;12.60;99.90;;;;;;4989924;28;25054;-77
2022/11/16 06:40:54;;;;;;;6.30;2.38;;;12.50;99.90;;;;;;4988065;28;25101;-75
2022/11/16 06:43:20;;;;;;;5.47;2.17;;;12.50;99.90;;;;;;4987795;28;25061;-76
2022/11/16 06:45:54;;;;;;;10.30;2.40;;;12.40;99.90;;;;;;4995843;28;25098;-75
2022/11/16 06:48:21;;;;;;;4.60;2.08;;;12.60;99.90;;;;;;4989438;28;25077;-76
2022/11/16 06:50:48;;;;;;;9.85;2.42;;;12.40;99.90;;;;;;4996107;28;25139;-76
2022/11/16 06:53:14;;;;;;;10.52;2.28;;;12.40;99.90;;;;;;4980813;28;25086;-75
2022/11/16 06:55:40;;;;;;;6.55;2.28;;;12.40;99.90;;;;;;4990694;28;25095;-75
2022/11/16 06:58:05;;;;;;;14.00;2.58;;;12.40;99.90;;;;;;4981453;28;25105;-76
2022/11/16 07:00:31;;;;;;;10.75;2.55;;;12.40;99.90;;;;;;4980135;28;25169;-76
2022/11/16 07:02:57;;;;;;;6.28;2.42;;;12.50;99.90;;;;;;4983083;28;25058;-78
2022/11/16 07:05:22;;;;;;;8.20;2.47;;;12.30;99.90;;;;;;4983953;28;25070;-75
2022/11/16 07:07:52;;;;;;;7.80;2.35;;;12.30;99.90;;;;;;4980281;28;25151;-76
2022/11/16 07:10:18;;;;;;;10.18;2.78;;;12.20;99.90;;;;;;4985336;28;25069;-79
2022/11/16 07:12:43;;;;;;;8.00;2.65;;;12.40;99.90;;;;;;4987466;28;25105;-75
2022/11/16 07:15:09;;;;;;;8.38;2.33;;;12.20;99.90;;;;;;4979243;28;25056;-75
2022/11/16 07:17:35;;;;;;;9.73;2.72;;;12.30;99.90;;;;;;4978676;28;25055;-76
2022/11/16 07:20:01;;;;;;;14.82;4.10;;;12.20;99.90;;;;;;4985727;28;25066;-75
2022/11/16 07:22:26;;;;;;;8.88;3.30;;;12.30;99.90;;;;;;4985479;28;25070;-76
2022/11/16 07:24:52;;;;;;;9.65;3.70;;;12.30;99.90;;;;;;4984356;28;25066;-74
2022/11/16 07:27:18;;;;;;;9.88;3.25;;;12.30;99.90;;;;;;4987598;28;25048;-75
2022/11/16 07:29:43;;;;;;;9.77;3.30;;;12.40;99.90;;;;;;4984249;28;25120;-76
2022/11/16 07:32:09;;;;;;;6.38;2.83;;;12.30;99.90;;;;;;4982823;28;25134;-76
2022/11/16 07:34:34;;;;;;;7.95;3.42;;;12.40;99.90;;;;;;4984886;28;25101;-76
2022/11/16 07:37:00;;;;;;;12.52;3.70;;;12.60;99.90;;;;;;4985421;28;25064;-78
2022/11/16 07:39:25;;;;;;;9.75;3.13;;;12.50;99.90;;;;;;4985026;28;25138;-75
2022/11/16 07:41:52;;;;;;;8.00;2.78;;;12.60;99.90;;;;;;4983159;28;25158;-74
2022/11/16 07:44:18;;;;;;;8.93;3.10;;;12.60;99.90;;;;;;4983429;28;25062;-75
2022/11/16 07:46:44;;;;;;;11.00;3.10;;;12.80;99.90;;;;;;4982237;28;25071;-72
2022/11/16 07:49:15;;;;;;;10.18;3.08;;;12.80;99.90;;;;;;4983870;28;25063;-76
2022/11/16 07:51:41;;;;;;;7.18;2.95;;;12.90;99.90;;;;;;4999762;28;25048;-72
2022/11/16 07:54:07;;;;;;;13.90;3.70;;;12.70;99.90;;;;;;4999400;28;25082;-75
2022/11/16 07:56:32;;;;;;;7.75;2.95;;;12.70;99.90;;;;;;4986145;28;25136;-73
2022/11/16 07:58:58;;;;;;;6.22;2.63;;;12.80;99.90;;;;;;4985696;28;25110;-73
2022/11/16 08:01:24;;;;;;;17.20;3.08;;;13.00;99.90;;;;;;4988753;28;25066;-75
2022/11/16 08:03:52;;;;;;;6.03;2.67;;;13.00;99.90;;;;;;4987528;28;25148;-74
2022/11/16 08:06:22;;;;;;;8.73;2.92;;;13.00;99.90;;;;;;4986954;28;25079;-74
2022/11/16 08:08:48;;;;;;;13.15;2.78;;;13.00;99.90;;;;;;4986318;28;25169;-73
2022/11/16 08:11:14;;;;;;;7.78;2.10;;;13.10;99.90;;;;;;4985486;28;25074;-74
2022/11/16 08:13:41;;;;;;;7.80;2.47;;;13.20;99.90;;;;;;4985086;28;25074;-74
2022/11/16 08:16:10;;;;;;;10.70;2.90;;;13.20;99.90;;;;;;4985359;28;25109;-75
2022/11/16 08:18:37;;;;;;;11.68;2.72;;;13.20;99.90;;;;;;4990016;28;25051;-73
2022/11/16 08:21:05;;;;;;;17.20;3.60;;;13.20;99.90;;;;;;4985939;28;25172;-75
2022/11/16 08:23:31;;;;;;;10.35;2.42;;;13.30;99.90;;;;;;4984833;28;25060;-72
2022/11/16 08:26:02;;;;;;;12.32;2.78;;;13.40;99.90;;;;;;4992350;28;25094;-73
2022/11/16 08:28:28;;;;;;;10.02;3.63;;;13.30;99.90;;;;;;5017141;28;25056;-73
2022/11/16 08:30:55;;;;;;;10.60;3.42;;;13.40;99.90;;;;;;4996685;28;25043;-73
2022/11/16 08:33:22;;;;;;;6.22;2.55;;;13.30;99.90;;;;;;4995484;28;25053;-74
2022/11/16 08:35:48;;;;;;;9.27;3.10;;;13.40;99.90;;;;;;5009272;28;25058;-73
2022/11/16 08:38:14;;;;;;;14.52;3.30;;;13.50;99.90;;;;;;4995565;28;25093;-73
2022/11/16 08:40:40;;;;;;;8.40;2.58;;;13.50;99.90;;;;;;4991546;28;25056;-74
2022/11/16 08:43:06;;;;;;;10.65;3.10;;;13.50;99.90;;;;;;5006788;28;25123;-72
2022/11/16 08:45:32;;;;;;;10.40;4.00;;;13.50;99.90;;;;;;4993961;28;25082;-73
2022/11/16 08:47:58;;;;;;;10.43;2.92;;;13.50;99.90;;;;;;4993105;28;25052;-75
2022/11/16 08:50:25;;;;;;;14.43;3.55;;;13.60;99.90;;;;;;4989314;28;25133;-73
2022/11/16 08:52:50;;;;;;;12.10;3.20;;;13.60;99.90;;;;;;4990616;28;25088;-74
2022/11/16 08:55:17;;;;;;;9.73;3.20;;;13.70;99.90;;;;;;4997288;28;25150;-73
2022/11/16 08:57:43;;;;;;;8.65;2.75;;;13.60;99.90;;;;;;4984379;28;25075;-73
2022/11/16 09:00:10;;;;;;;7.72;2.67;;;13.60;99.90;;;;;;4987039;28;25093;-72
2022/11/16 09:02:37;;;;;;;10.27;2.55;;;13.70;99.90;;;;;;4988128;28;25080;-74
2022/11/16 09:05:04;;;;;;;15.95;3.80;;;13.60;99.90;;;;;;5003072;28;25064;-75
2022/11/16 09:07:29;;;;;;;12.30;2.80;;;13.70;99.90;;;;;;4994864;28;25127;-74
2022/11/16 09:09:55;;;;;;;16.50;4.10;;;13.80;99.90;;;;;;4997019;28;25104;-73
2022/11/16 09:12:20;;;;;;;14.18;3.17;;;13.80;99.90;;;;;;4995946;28;25128;-74
2022/11/16 09:14:46;;;;;;;5.70;2.25;;;13.80;99.90;;;;;;4991130;28;25088;-74
2022/11/16 09:17:12;;;;;;;12.65;4.00;;;13.70;99.90;;;;;;4986725;28;25147;-73
2022/11/16 09:19:37;;;;;;;10.57;3.42;;;13.70;99.90;;;;;;4986373;28;25078;-73
2022/11/16 09:22:03;;;;;;;10.95;2.80;;;13.70;99.90;;;;;;4990974;28;25082;-74
2022/11/16 09:24:29;;;;;;;7.18;2.92;;;13.70;99.90;;;;;;5002060;28;25159;-76
2022/11/16 09:26:59;;;;;;;12.50;2.85;;;13.60;99.90;;;;;;4994586;28;25079;-76
2022/11/16 09:29:26;;;;;;;10.27;3.13;;;13.70;99.90;;;;;;4986797;28;25067;-76
2022/11/16 09:31:52;;;;;;;11.05;2.85;;;13.60;99.90;;;;;;4988120;28;25077;-75
2022/11/16 09:34:17;;;;;;;11.35;2.78;;;13.50;99.90;;;;;;4984064;28;25067;-73
2022/11/16 09:36:43;;;;;;;7.47;3.03;;;13.50;99.90;;;;;;4986067;28;25131;-76
2022/11/16 09:39:11;;;;;;;8.63;2.83;;;13.30;99.90;;;;;;4986311;28;25085;-74
2022/11/16 09:42:14;;;;;;;8.65;2.83;;;13.30;99.90;;;;;;4985490;28;25140;-72
2022/11/16 09:45:03;;;;;;;;;;;13.40;99.90;;;;;;5001687;28;25093;-72
2022/11/16 09:47:47;;;;;;;5.95;3.05;;;13.40;99.90;;;;;;4985747;28;24072;-72
2022/11/16 09:50:23;;;;;;;6.13;2.47;;;13.50;99.90;;;;;;4986457;28;25075;-76
2022/11/16 09:52:54;;;;;;;7.72;2.38;;;13.40;99.90;;;;;;4988809;28;25065;-74
2022/11/16 09:55:22;;;;;;;6.25;2.58;;;13.40;99.90;;;;;;4984599;28;25085;-73
2022/11/16 09:57:51;;;;;;;10.73;2.92;;;13.60;99.90;;;;;;4987229;28;25453;-73
2022/11/16 10:00:22;;;;;;;9.32;2.80;;;13.40;99.90;;;;;;4986026;28;25067;-71
2022/11/16 10:03:05;;;;;;;6.80;2.67;;;13.30;99.90;;;;;;4985368;28;25081;-73
2022/11/16 10:05:46;;;;;;;10.25;2.90;;;13.40;99.90;;;;;;4984543;28;25047;-74
2022/11/16 10:08:57;;;;;;;11.27;2.50;;;13.40;99.90;;;;;;4983532;28;25075;-74
2022/11/16 10:11:35;;;;;;;10.88;3.72;;;13.50;99.90;;;;;;4981807;28;25074;-72
2022/11/16 10:14:04;;;;;;;8.00;2.13;;;13.50;99.90;;;;;;4982073;28;25083;-72
2022/11/16 10:16:44;;;;;;;8.40;2.95;;;13.50;99.90;;;;;;4983138;28;25082;-73
2022/11/16 10:19:22;;;;;;;10.45;2.67;;;13.30;99.90;;;;;;4997904;28;25061;-73
2022/11/16 10:22:03;;;;;;;13.60;2.28;;;13.50;99.90;;;;;;4985491;28;25066;-72
2022/11/16 10:24:56;;;;;;;2.78;1.73;;;13.50;99.90;;;;;;4984652;28;25096;-72
2022/11/16 10:27:43;;;;;;;5.72;2.67;;;13.50;99.90;;;;;;4986634;28;25069;-73
2022/11/16 10:30:12;;;;;;;5.85;1.88;;;13.30;99.90;;;;;;4989779;28;25062;-73
2022/11/16 10:32:43;;;;;;;7.50;2.47;;;13.10;99.90;;;;;;4986283;28;25075;-74
2022/11/16 10:35:09;;;;;;;10.98;2.25;;;13.10;99.90;;;;;;5005083;28;25093;-72
2022/11/16 10:37:47;;;;;;;12.60;2.55;;;13.30;99.90;;;;;;4987076;28;25106;-72
2022/11/16 10:40:26;;;;;;;5.28;2.20;;;13.10;99.90;;;;;;4990422;28;25104;-73
2022/11/16 10:43:10;;;;;;;10.23;2.22;;;13.30;99.90;;;;;;4989876;28;25077;-73
2022/11/16 10:46:14;;;;;;;10.20;2.72;;;13.20;99.90;;;;;;4988411;28;25141;-74
2022/11/16 10:48:49;;;;;;;8.60;1.98;;;13.30;99.90;;;;;;4987693;28;25110;-73
2022/11/16 10:51:15;;;;;;;5.47;1.42;;;13.30;99.90;;;;;;5007094;28;25189;-72
2022/11/16 10:53:45;;;;;;;12.45;3.35;;;13.10;99.90;;;;;;4990850;28;25117;-72
2022/11/16 10:56:36;;;;;;;4.72;1.80;;;12.90;99.90;;;;;;4988157;28;25137;-73
2022/11/16 10:59:06;;;;;;;6.18;2.00;;;13.00;99.90;;;;;;4985445;28;25106;-72
2022/11/16 11:01:42;;;;;;;8.27;1.48;;;13.00;99.90;;;;;;4985914;28;25135;-73
2022/11/16 11:04:28;;;;;;;9.30;1.88;;;13.00;99.90;;;;;;4989385;28;25144;-75
2022/11/16 11:07:21;;;;;;;8.93;2.33;;;13.10;99.90;;;;;;4988803;28;25100;-73
2022/11/16 11:09:53;;;;;;;7.63;2.10;;;12.80;99.90;;;;;;4987954;28;25147;-72
2022/11/16 11:12:39;;;;;;;6.03;2.05;;;12.70;99.90;;;;;;4999533;28;25116;-72
2022/11/16 11:15:11;;;;;;;6.28;1.85;;;12.70;99.90;;;;;;4992220;28;25064;-73
2022/11/16 11:17:48;;;;;;;5.17;1.67;;;12.50;99.90;;;;;;4986044;28;25074;-73
2022/11/16 11:20:16;;;;;;;10.40;2.20;;;12.40;99.90;;;;;;5003983;28;25154;-71
2022/11/16 11:22:57;;;;;;;4.88;1.52;;;12.30;99.90;;;;;;5000182;28;25189;-73
2022/11/16 11:25:36;;;;;;;6.97;1.73;;;12.30;99.90;;;;;;4982629;28;25144;-73
2022/11/16 11:28:22;;;;;;;9.85;1.65;;;12.30;99.90;;;;;;4980829;28;25075;-73
2022/11/16 11:31:02;;;;;;;8.10;1.67;;;12.40;99.90;;;;;;4979466;28;25116;-72
2022/11/16 11:33:48;;;;;;;6.97;1.50;;;12.40;99.90;;;;;;4977832;28;25087;-73
2022/11/16 11:36:19;;;;;;;10.23;1.80;;;12.40;99.90;;;;;;4993543;28;25110;-71
2022/11/16 11:39:19;;;;;;;4.82;1.45;;;12.40;99.90;;;;;;4987861;28;25130;-72
2022/11/16 11:41:58;;;;;;;5.50;1.58;;;12.50;99.90;;;;;;4976194;28;25080;-74
2022/11/16 11:44:34;;;;;;;9.57;1.48;;;12.70;99.90;;;;;;4997659;28;25173;-71
2022/11/16 11:47:20;;;;;;;5.40;1.35;;;12.70;99.90;;;;;;4978303;28;25073;-72
2022/11/16 11:49:51;;;;;;;7.53;1.98;;;12.60;99.90;;;;;;4987916;28;25057;-73
2022/11/16 11:52:55;;;;;;;12.18;1.73;;;12.60;99.90;;;;;;4981539;28;25057;-74
2022/11/16 11:55:20;;;;;;;7.55;1.73;;;12.60;99.90;;;;;;4980067;28;25093;-72
2022/11/16 11:57:51;;;;;;;11.02;1.85;;;12.70;99.90;;;;;;4982396;28;25181;-73
2022/11/16 12:00:17;;;;;;;9.88;2.28;;;13.00;99.90;;;;;;4987514;28;25125;-71
2022/11/16 12:02:52;;;;;;;7.78;1.63;;;13.00;99.90;;;;;;5002752;28;25082;-72
2022/11/16 12:05:55;;;;;;;9.90;1.73;;;13.00;99.90;;;;;;4996332;28;25076;-72
2022/11/16 12:08:28;;;;;;;3.72;1.27;;;12.80;99.90;;;;;;4992014;28;25047;-73
2022/11/16 12:11:13;;;;;;;4.43;1.08;;;12.90;99.90;;;;;;4989361;28;25082;-73
2022/11/16 12:13:47;;;;;;;6.00;1.55;;;12.80;99.90;;;;;;5003226;28;25095;-72
2022/11/16 12:16:38;;;;;;;5.22;1.65;;;12.80;99.90;;;;;;5002210;28;25101;-73
2022/11/16 12:19:25;;;;;;;7.65;1.63;;;12.80;99.90;;;;;;4991090;28;25108;-72
2022/11/16 12:22:15;;;;;;;5.32;1.65;;;12.80;99.90;;;;;;5010339;28;25067;-72
2022/11/16 12:24:58;;;;;;;8.57;1.17;;;12.90;99.90;;;;;;5008747;28;25099;-72
2022/11/16 12:27:26;;;;;;;4.50;1.50;;;13.50;99.90;;;;;;5007607;28;25076;-72
2022/11/16 12:30:13;;;;;;;3.35;1.70;;;13.70;99.90;;;;;;4997788;28;25056;-72
2022/11/16 12:33:04;;;;;;;5.95;1.75;;;13.10;99.90;;;;;;4994062;28;25077;-71
2022/11/16 12:35:43;;;;;;;7.95;1.77;;;12.80;99.90;;;;;;5003258;28;25138;-71
2022/11/16 12:38:48;;;;;;;5.93;1.92;;;12.70;99.90;;;;;;4995059;28;25072;-72
2022/11/16 12:41:47;;;;;;;9.13;1.63;;;12.50;99.90;;;;;;4990426;28;25085;-71
2022/11/16 12:44:32;;;;;;;7.65;2.10;;;12.60;99.90;;;;;;4989409;28;25103;-72
2022/11/16 12:47:04;;;;;;;7.97;1.88;;;12.60;99.90;;;;;;4979619;28;25050;-71
2022/11/16 12:49:51;;;;;;;8.50;2.03;;;12.70;99.90;;;;;;4984118;28;25156;-71
2022/11/16 12:52:40;;;;;;;4.70;1.80;;;12.60;99.90;;;;;;4998553;28;25061;-74
2022/11/16 12:55:16;;;;;;;7.25;1.67;;;12.40;99.90;;;;;;4984965;28;25077;-70
2022/11/16 12:58:00;;;;;;;7.53;1.92;;;12.60;99.90;;;;;;4984641;28;25054;-73
2022/11/16 13:00:28;;;;;;;7.25;1.70;;;12.50;99.90;;;;;;4982432;28;25064;-71
2022/11/16 13:03:17;;;;;;;4.15;1.40;;;12.50;99.90;;;;;;4986646;28;25061;-72
2022/11/16 13:05:52;;;;;;;9.35;1.90;;;12.50;99.90;;;;;;5003183;28;25143;-72
2022/11/16 13:08:18;;;;;;;6.82;1.50;;;12.50;99.90;;;;;;4991247;28;25073;-72
2022/11/16 13:10:47;;;;;;;5.57;1.60;;;12.70;99.90;;;;;;4991231;28;25060;-72
2022/11/16 13:13:28;;;;;;;4.38;1.33;;;12.90;99.90;;;;;;4985684;28;25102;-72
2022/11/16 13:15:59;;;;;;;7.00;2.20;;;13.00;99.90;;;;;;4985358;28;25057;-71
2022/11/16 13:18:26;;;;;;;6.70;1.70;;;12.90;99.90;;;;;;4985449;28;25087;-72
2022/11/16 13:21:04;;;;;;;8.48;1.58;;;12.80;99.90;;;;;;4985777;28;25135;-70
2022/11/16 13:23:29;;;;;;;8.98;1.60;;;12.80;99.90;;;;;;4980188;28;25061;-72
2022/11/16 13:26:20;;;;;;;5.82;2.15;;;13.00;99.90;;;;;;4986738;28;25075;-72
2022/11/16 13:29:02;;;;;;;12.63;1.63;;;12.80;99.90;;;;;;4983334;28;25129;-71
2022/11/16 13:31:55;;;;;;;5.18;1.95;;;12.70;99.90;;;;;;4983865;28;25146;-72
2022/11/16 13:34:32;;;;;;;8.80;1.67;;;12.70;99.90;;;;;;4981810;28;25051;-71
2022/11/16 13:36:58;;;;;;;10.77;1.83;;;12.60;99.90;;;;;;4984908;28;25060;-72
2022/11/16 13:39:49;;;;;;;4.53;1.35;;;12.70;99.90;;;;;;4984913;28;25067;-70
2022/11/16 13:42:15;;;;;;;10.00;2.38;;;12.60;99.90;;;;;;4983435;28;25116;-71
2022/11/16 13:44:41;;;;;;;8.68;2.58;;;12.60;99.90;;;;;;4985762;28;25067;-71